createdAt,value
2022-11-27T00:01:37.496Z,99.87
2022-11-27T00:04:07.807Z,100.00
2022-11-27T00:06:38.123Z,99.56
2022-11-27T00:09:11.871Z,99.47
2022-11-27T00:11:40.431Z,99.76
2022-11-27T00:14:18.040Z,99.53
2022-11-27T00:16:45.636Z,100.00
2022-11-27T00:19:13.538Z,99.77
2022-11-27T00:21:41.306Z,100.00
2022-11-27T00:24:11.140Z,100.00
2022-11-27T00:26:44.378Z,100.00
2022-11-27T00:29:12.267Z,100.00
2022-11-27T00:31:40.014Z,100.00
2022-11-27T00:34:09.103Z,100.00
2022-11-27T00:36:37.802Z,100.00
2022-11-27T00:39:06.457Z,100.00
2022-11-27T00:41:34.316Z,100.00
2022-11-27T00:44:02.351Z,100.00
2022-11-27T00:46:33.348Z,100.00
2022-11-27T00:49:04.378Z,100.00
2022-11-27T00:51:32.223Z,100.00
2022-11-27T00:54:00.595Z,99.82
2022-11-27T00:56:32.123Z,99.89
2022-11-27T00:59:00.496Z,100.00
2022-11-27T01:01:42.524Z,100.00
2022-11-27T01:04:15.148Z,100.00
2022-11-27T01:06:43.531Z,99.52
2022-11-27T01:09:15.517Z,99.66
2022-11-27T01:11:43.446Z,99.89
2022-11-27T01:14:16.680Z,99.02
2022-11-27T01:16:44.786Z,99.18
2022-11-27T01:19:14.367Z,99.26
2022-11-27T01:21:42.430Z,99.10
2022-11-27T01:24:12.526Z,99.05
2022-11-27T01:26:41.129Z,98.79
2022-11-27T01:29:09.131Z,99.01
2022-11-27T01:31:36.973Z,98.63
2022-11-27T01:34:13.266Z,99.45
2022-11-27T01:36:41.156Z,98.74
2022-11-27T01:39:19.955Z,99.05
2022-11-27T01:41:48.995Z,99.04
2022-11-27T01:44:25.821Z,99.00
2022-11-27T01:47:10.436Z,98.21
2022-11-27T01:49:44.674Z,98.45
2022-11-27T01:52:24.039Z,98.18
2022-11-27T01:55:28.263Z,97.86
2022-11-27T01:58:07.505Z,98.17
2022-11-27T02:00:36.211Z,97.96
2022-11-27T02:03:04.102Z,98.16
2022-11-27T02:05:33.473Z,98.61
2022-11-27T02:08:07.764Z,98.87
2022-11-27T02:10:54.728Z,98.86
2022-11-27T02:13:36.949Z,99.08
2022-11-27T02:16:44.180Z,99.18
2022-11-27T02:20:03.492Z,99.13
2022-11-27T02:23:18.021Z,99.50
2022-11-27T02:26:15.658Z,100.00
2022-11-27T02:29:20.347Z,99.68
2022-11-27T02:32:26.030Z,100.00
2022-11-27T02:35:32.375Z,99.76
2022-11-27T02:38:15.451Z,99.88
2022-11-27T02:40:54.868Z,99.57
2022-11-27T02:43:40.766Z,100.00
2022-11-27T02:46:11.008Z,99.86
2022-11-27T02:48:48.002Z,99.60
2022-11-27T02:51:22.547Z,99.81
2022-11-27T02:53:59.341Z,99.29
2022-11-27T02:56:31.018Z,99.76
2022-11-27T02:59:05.236Z,99.48
2022-11-27T03:01:40.808Z,99.91
2022-11-27T03:04:15.491Z,99.60
2022-11-27T03:06:49.337Z,100.00
2022-11-27T03:09:27.906Z,100.00
2022-11-27T03:11:57.256Z,99.57
2022-11-27T03:14:25.828Z,99.80
2022-11-27T03:17:10.633Z,99.87
2022-11-27T03:19:45.868Z,99.99
2022-11-27T03:22:13.728Z,100.00
2022-11-27T03:24:41.653Z,100.00
2022-11-27T03:27:13.810Z,100.00
2022-11-27T03:29:59.028Z,100.00
2022-11-27T03:32:29.226Z,100.00
2022-11-27T03:34:57.514Z,100.00
2022-11-27T03:37:25.951Z,100.00
2022-11-27T03:39:54.181Z,100.00
2022-11-27T03:42:39.428Z,100.00
2022-11-27T03:45:38.654Z,100.00
2022-11-27T03:48:21.399Z,100.00
2022-11-27T03:51:16.526Z,100.00
2022-11-27T03:54:05.612Z,100.00
2022-11-27T03:57:03.793Z,100.00
2022-11-27T03:59:37.597Z,100.00
2022-11-27T04:02:05.242Z,100.00
2022-11-27T04:04:33.082Z,100.00
2022-11-27T04:07:00.634Z,100.00
2022-11-27T04:09:28.427Z,100.00
2022-11-27T04:11:55.917Z,100.00
2022-11-27T04:14:23.649Z,100.00
2022-11-27T04:16:51.212Z,100.00
2022-11-27T04:19:19.020Z,100.00
2022-11-27T04:21:46.528Z,100.00
2022-11-27T04:24:14.407Z,100.00
2022-11-27T04:26:41.845Z,100.00
2022-11-27T04:29:09.736Z,100.00
2022-11-27T04:31:37.303Z,100.00
2022-11-27T04:34:05.210Z,100.00
2022-11-27T04:36:38.858Z,100.00
2022-11-27T04:39:07.338Z,100.00
2022-11-27T04:41:34.955Z,100.00
2022-11-27T04:44:02.761Z,100.00
2022-11-27T04:46:30.563Z,100.00
2022-11-27T04:48:58.372Z,100.00
2022-11-27T04:51:25.942Z,100.00
2022-11-27T04:53:53.894Z,100.00
2022-11-27T04:56:21.493Z,100.00
2022-11-27T04:58:49.366Z,100.00
2022-11-27T05:01:17.020Z,100.00
2022-11-27T05:03:46.594Z,100.00
2022-11-27T05:06:14.313Z,100.00
2022-11-27T05:08:42.234Z,100.00
2022-11-27T05:11:14.289Z,100.00
2022-11-27T05:13:43.010Z,100.00
2022-11-27T05:16:10.914Z,100.00
2022-11-27T05:18:38.827Z,100.00
2022-11-27T05:21:08.559Z,100.00
2022-11-27T05:23:36.484Z,100.00
2022-11-27T05:26:04.075Z,100.00
2022-11-27T05:28:31.948Z,100.00
2022-11-27T05:30:59.872Z,100.00
2022-11-27T05:33:27.746Z,100.00
2022-11-27T05:35:55.389Z,100.00
2022-11-27T05:38:23.134Z,100.00
2022-11-27T05:40:50.642Z,100.00
2022-11-27T05:43:18.546Z,100.00
2022-11-27T05:45:46.013Z,100.00
2022-11-27T05:48:13.875Z,100.00
2022-11-27T05:50:41.409Z,100.00
2022-11-27T05:53:09.347Z,100.00
2022-11-27T05:55:36.808Z,100.00
2022-11-27T05:58:04.794Z,100.00
2022-11-27T06:00:32.482Z,100.00
2022-11-27T06:03:00.536Z,100.00
2022-11-27T06:05:28.162Z,100.00
2022-11-27T06:07:56.011Z,100.00
2022-11-27T06:10:23.653Z,100.00
2022-11-27T06:12:51.471Z,100.00
2022-11-27T06:15:18.912Z,100.00
2022-11-27T06:17:49.279Z,100.00
2022-11-27T06:20:17.386Z,100.00
2022-11-27T06:22:45.285Z,100.00
2022-11-27T06:25:12.795Z,100.00
2022-11-27T06:27:40.713Z,100.00
2022-11-27T06:30:09.456Z,100.00
2022-11-27T06:32:37.308Z,100.00
2022-11-27T06:35:05.409Z,100.00
2022-11-27T06:37:33.390Z,100.00
2022-11-27T06:40:01.001Z,100.00
2022-11-27T06:42:32.228Z,100.00
2022-11-27T06:44:59.750Z,100.00
2022-11-27T06:47:27.756Z,100.00
2022-11-27T06:49:55.328Z,100.00
2022-11-27T06:52:23.196Z,100.00
2022-11-27T06:54:50.739Z,100.00
2022-11-27T06:57:18.664Z,100.00
2022-11-27T06:59:46.418Z,100.00
2022-11-27T07:02:15.380Z,100.00
2022-11-27T07:04:43.025Z,100.00
2022-11-27T07:07:11.213Z,100.00
2022-11-27T07:09:42.057Z,100.00
2022-11-27T07:12:11.485Z,100.00
2022-11-27T07:14:39.229Z,100.00
2022-11-27T07:17:07.315Z,100.00
2022-11-27T07:19:34.849Z,100.00
2022-11-27T07:22:03.003Z,100.00
2022-11-27T07:24:30.503Z,100.00
2022-11-27T07:26:58.441Z,100.00
2022-11-27T07:29:26.105Z,100.00
2022-11-27T07:31:53.913Z,100.00
2022-11-27T07:34:22.050Z,100.00
2022-11-27T07:36:49.897Z,100.00
2022-11-27T07:39:33.886Z,100.00
2022-11-27T07:42:36.432Z,100.00
2022-11-27T07:44:55.664Z,100.00
2022-11-27T07:47:23.498Z,100.00
2022-11-27T07:49:51.105Z,100.00
2022-11-27T07:52:19.082Z,100.00
2022-11-27T07:54:46.561Z,100.00
2022-11-27T07:57:14.329Z,100.00
2022-11-27T07:59:46.987Z,100.00
2022-11-27T08:02:15.922Z,100.00
2022-11-27T08:04:43.790Z,100.00
2022-11-27T08:07:12.627Z,100.00
2022-11-27T08:09:40.357Z,100.00
2022-11-27T08:12:08.225Z,100.00
2022-11-27T08:14:36.027Z,100.00
2022-11-27T08:17:03.881Z,100.00
2022-11-27T08:19:31.549Z,100.00
2022-11-27T08:21:59.448Z,100.00
2022-11-27T08:24:26.940Z,100.00
2022-11-27T08:26:55.082Z,100.00
2022-11-27T08:29:22.864Z,100.00
2022-11-27T08:31:50.681Z,100.00
2022-11-27T08:34:18.248Z,100.00
2022-11-27T08:36:46.142Z,100.00
2022-11-27T08:39:14.383Z,100.00
2022-11-27T08:41:42.323Z,100.00
2022-11-27T08:44:09.913Z,100.00
2022-11-27T08:46:37.838Z,100.00
2022-11-27T08:49:05.400Z,100.00
2022-11-27T08:51:33.233Z,100.00
2022-11-27T08:54:00.664Z,100.00
2022-11-27T08:56:28.865Z,100.00
2022-11-27T08:58:57.272Z,100.00
2022-11-27T09:01:29.694Z,100.00
2022-11-27T09:03:57.832Z,100.00
2022-11-27T09:06:29.955Z,100.00
2022-11-27T09:08:59.939Z,100.00
2022-11-27T09:11:31.201Z,100.00
2022-11-27T09:14:03.882Z,100.00
2022-11-27T09:16:50.156Z,100.00
2022-11-27T09:19:18.207Z,100.00
2022-11-27T09:21:46.936Z,100.00
2022-11-27T09:24:14.396Z,100.00
2022-11-27T09:26:42.318Z,100.00
2022-11-27T09:29:09.791Z,100.00
2022-11-27T09:31:37.619Z,100.00
2022-11-27T09:34:05.875Z,100.00
2022-11-27T09:36:33.840Z,100.00
2022-11-27T09:39:04.239Z,100.00
2022-11-27T09:41:55.405Z,100.00
2022-11-27T09:44:45.360Z,100.00
2022-11-27T09:47:42.010Z,100.00
2022-11-27T09:50:24.375Z,100.00
2022-11-27T09:53:06.463Z,100.00
2022-11-27T09:55:47.285Z,100.00
2022-11-27T09:58:21.578Z,100.00
2022-11-27T10:00:49.145Z,100.00
2022-11-27T10:03:25.553Z,100.00
2022-11-27T10:06:22.083Z,100.00
2022-11-27T10:09:19.333Z,100.00
2022-11-27T10:12:30.692Z,100.00
2022-11-27T10:15:13.969Z,100.00
2022-11-27T10:18:01.579Z,100.00
2022-11-27T10:20:32.896Z,100.00
2022-11-27T10:23:14.858Z,100.00
2022-11-27T10:25:52.489Z,100.00
2022-11-27T10:28:48.941Z,100.00
2022-11-27T10:31:50.226Z,100.00
2022-11-27T10:34:58.557Z,100.00
2022-11-27T10:38:10.150Z,100.00
2022-11-27T10:40:49.148Z,100.00
2022-11-27T10:43:23.296Z,100.00
2022-11-27T10:46:20.467Z,100.00
2022-11-27T10:48:48.746Z,100.00
2022-11-27T10:51:29.354Z,100.00
2022-11-27T10:54:01.042Z,100.00
2022-11-27T10:57:33.413Z,100.00
2022-11-27T11:00:13.544Z,100.00
2022-11-27T11:02:41.919Z,100.00
2022-11-27T11:08:20.868Z,100.00
2022-11-27T11:10:57.901Z,100.00
2022-11-27T11:13:41.367Z,100.00
2022-11-27T11:16:14.790Z,100.00
2022-11-27T11:18:49.671Z,100.00
2022-11-27T11:21:29.693Z,100.00
2022-11-27T11:24:05.092Z,100.00
2022-11-27T11:26:51.411Z,100.00
2022-11-27T11:29:46.751Z,100.00
2022-11-27T11:32:21.580Z,100.00
2022-11-27T11:35:08.539Z,100.00
2022-11-27T11:37:45.486Z,100.00
2022-11-27T11:40:23.703Z,100.00
2022-11-27T11:43:01.257Z,100.00
2022-11-27T11:45:34.568Z,100.00
2022-11-27T11:48:28.179Z,100.00
2022-11-27T11:51:26.421Z,100.00
2022-11-27T11:54:40.207Z,100.00
2022-11-27T11:57:45.786Z,100.00
2022-11-27T12:00:18.375Z,100.00
2022-11-27T12:03:05.719Z,100.00
2022-11-27T12:06:07.194Z,100.00
2022-11-27T12:08:56.383Z,100.00
2022-11-27T12:12:18.677Z,100.00
2022-11-27T12:15:16.290Z,100.00
2022-11-27T12:18:42.973Z,100.00
2022-11-27T12:21:30.790Z,100.00
2022-11-27T12:24:29.194Z,100.00
2022-11-27T12:27:15.965Z,100.00
2022-11-27T12:30:23.880Z,100.00
2022-11-27T12:33:13.090Z,100.00
2022-11-27T12:36:07.129Z,100.00
2022-11-27T12:39:03.576Z,100.00
2022-11-27T12:42:12.438Z,100.00
2022-11-27T12:48:39.371Z,100.00
2022-11-27T12:57:33.960Z,100.00
2022-11-27T13:00:08.072Z,100.00
2022-11-27T13:03:01.133Z,100.00
2022-11-27T13:05:41.309Z,100.00
2022-11-27T13:11:36.315Z,100.00
2022-11-27T13:14:26.939Z,100.00
2022-11-27T13:17:05.252Z,100.00
2022-11-27T13:19:47.180Z,100.00
2022-11-27T13:22:27.531Z,100.00
2022-11-27T13:24:56.749Z,100.00
2022-11-27T13:27:29.529Z,100.00
2022-11-27T13:30:09.672Z,100.00
2022-11-27T13:32:48.601Z,100.00
2022-11-27T13:35:36.571Z,100.00
2022-11-27T13:38:26.476Z,100.00
2022-11-27T13:40:57.531Z,100.00
2022-11-27T13:43:47.123Z,100.00
2022-11-27T13:46:26.497Z,100.00
2022-11-27T13:49:02.884Z,100.00
2022-11-27T13:51:35.300Z,100.00
2022-11-27T13:54:29.413Z,100.00
2022-11-27T13:56:56.936Z,100.00
2022-11-27T13:59:26.095Z,100.00
2022-11-27T14:01:58.672Z,100.00
2022-11-27T14:04:29.134Z,100.00
2022-11-27T14:07:10.332Z,100.00
2022-11-27T14:09:46.577Z,100.00
2022-11-27T14:12:29.539Z,100.00
2022-11-27T14:15:16.667Z,100.00
2022-11-27T14:17:47.538Z,100.00
2022-11-27T14:20:18.176Z,100.00
2022-11-27T14:23:13.207Z,100.00
2022-11-27T14:25:41.822Z,100.00
2022-11-27T14:28:21.682Z,100.00
2022-11-27T14:30:56.967Z,100.00
2022-11-27T14:33:33.217Z,100.00
2022-11-27T14:36:08.054Z,100.00
2022-11-27T14:38:37.230Z,100.00
2022-11-27T14:41:16.477Z,100.00
2022-11-27T14:43:44.144Z,99.92
2022-11-27T14:46:21.593Z,99.09
2022-11-27T14:48:57.454Z,98.26
2022-11-27T14:51:29.095Z,97.89
2022-11-27T14:54:25.603Z,96.13
2022-11-27T14:56:54.174Z,95.07
2022-11-27T14:59:24.022Z,95.08
2022-11-27T15:02:11.452Z,93.65
2022-11-27T15:04:42.262Z,93.39
2022-11-27T15:07:25.175Z,92.93
2022-11-27T15:09:56.927Z,93.45
2022-11-27T15:12:30.692Z,96.07
2022-11-27T15:15:29.028Z,97.87
2022-11-27T15:18:03.645Z,98.89
2022-11-27T15:20:42.596Z,99.23
2022-11-27T15:23:34.098Z,99.62
2022-11-27T15:26:17.816Z,99.86
2022-11-27T15:28:53.114Z,100.00
2022-11-27T15:31:38.249Z,100.00
2022-11-27T15:34:30.127Z,100.00
2022-11-27T15:37:03.813Z,100.00
2022-11-27T15:39:53.408Z,99.93
2022-11-27T15:42:22.430Z,98.83
2022-11-27T15:44:55.865Z,98.52
2022-11-27T15:47:27.523Z,97.67
2022-11-27T15:49:56.143Z,97.32
2022-11-27T15:52:23.895Z,97.27
2022-11-27T15:54:52.532Z,97.73
2022-11-27T15:57:20.369Z,96.88
2022-11-27T15:59:50.792Z,96.24
2022-11-27T16:02:20.828Z,96.12
2022-11-27T16:04:50.470Z,95.78
2022-11-27T16:07:18.080Z,95.96
2022-11-27T16:09:49.159Z,95.81
2022-11-27T16:12:16.837Z,95.79
2022-11-27T16:14:44.679Z,95.10
2022-11-27T16:17:12.338Z,96.18
2022-11-27T16:19:40.827Z,94.47
2022-11-27T16:22:08.618Z,94.53
2022-11-27T16:24:38.049Z,94.83
2022-11-27T16:27:07.260Z,94.22
2022-11-27T16:29:35.049Z,94.04
2022-11-27T16:32:03.441Z,94.18
2022-11-27T16:34:31.343Z,94.26
2022-11-27T16:36:59.471Z,94.22
2022-11-27T16:39:28.620Z,94.18
2022-11-27T16:41:57.303Z,94.70
2022-11-27T16:44:25.472Z,94.49
2022-11-27T16:46:53.855Z,93.49
2022-11-27T16:49:21.992Z,93.71
2022-11-27T16:51:50.787Z,94.15
2022-11-27T16:54:19.668Z,93.25
2022-11-27T16:56:47.481Z,93.19
2022-11-27T16:59:15.707Z,92.70
2022-11-27T17:01:44.785Z,93.34
2022-11-27T17:04:20.632Z,94.21
2022-11-27T17:06:50.369Z,94.60
2022-11-27T17:09:20.491Z,95.35
2022-11-27T17:11:49.091Z,95.01
2022-11-27T17:14:19.942Z,94.92
2022-11-27T17:16:48.038Z,95.29
2022-11-27T17:19:17.765Z,95.32
2022-11-27T17:21:46.283Z,95.41
2022-11-27T17:24:17.061Z,96.08
2022-11-27T17:26:48.078Z,95.96
2022-11-27T17:29:20.982Z,95.44
2022-11-27T17:31:50.710Z,95.99
2022-11-27T17:34:19.013Z,95.46
2022-11-27T17:36:53.383Z,95.38
2022-11-27T17:39:21.826Z,95.65
2022-11-27T17:41:49.494Z,95.71
2022-11-27T17:44:17.423Z,96.71
2022-11-27T17:46:49.938Z,96.54
2022-11-27T17:49:19.459Z,96.02
2022-11-27T17:51:48.204Z,95.39
2022-11-27T17:54:16.243Z,94.86
2022-11-27T17:56:51.105Z,95.25
2022-11-27T17:59:20.338Z,95.91
2022-11-27T18:01:51.441Z,95.82
2022-11-27T18:04:20.918Z,95.36
2022-11-27T18:06:48.989Z,95.37
2022-11-27T18:09:16.958Z,95.00
2022-11-27T18:11:44.728Z,95.43
2022-11-27T18:14:13.730Z,95.02
2022-11-27T18:16:42.414Z,95.49
2022-11-27T18:19:12.072Z,94.61
2022-11-27T18:21:40.587Z,95.74
2022-11-27T18:24:22.983Z,95.98
2022-11-27T18:27:10.560Z,95.44
2022-11-27T18:29:42.495Z,95.16
2022-11-27T18:32:12.052Z,94.60
2022-11-27T18:34:40.602Z,94.62
2022-11-27T18:37:09.251Z,94.31
2022-11-27T18:39:38.792Z,94.35
2022-11-27T18:42:07.768Z,94.45
2022-11-27T18:47:35.049Z,95.03
2022-11-27T18:50:06.887Z,95.96
2022-11-27T18:52:37.063Z,96.29
2022-11-27T18:55:06.208Z,96.66
2022-11-27T18:57:33.751Z,96.33
2022-11-27T19:00:01.705Z,96.85
2022-11-27T19:02:29.980Z,97.18
2022-11-27T19:04:58.359Z,96.97
2022-11-27T19:07:28.168Z,97.12
2022-11-27T19:09:58.909Z,97.23
2022-11-27T19:12:26.757Z,98.02
2022-11-27T19:14:55.824Z,97.81
2022-11-27T19:17:30.844Z,97.87
2022-11-27T19:20:00.630Z,98.69
2022-11-27T19:22:28.982Z,98.04
2022-11-27T19:24:57.939Z,98.50
2022-11-27T19:27:25.978Z,98.88
2022-11-27T19:29:54.271Z,99.29
2022-11-27T19:32:22.402Z,99.13
2022-11-27T19:34:51.517Z,98.71
2022-11-27T19:37:33.467Z,98.92
2022-11-27T19:40:04.116Z,98.82
2022-11-27T19:42:32.679Z,98.54
2022-11-27T19:45:00.607Z,98.43
2022-11-27T19:47:28.187Z,99.34
2022-11-27T19:49:56.077Z,98.79
2022-11-27T19:52:23.794Z,98.86
2022-11-27T19:54:51.668Z,99.37
2022-11-27T19:57:19.427Z,99.47
2022-11-27T19:59:47.339Z,99.64
2022-11-27T20:02:18.025Z,99.13
2022-11-27T20:04:46.785Z,98.83
2022-11-27T20:07:15.180Z,98.68
2022-11-27T20:09:43.525Z,98.32
2022-11-27T20:12:11.449Z,99.01
2022-11-27T20:14:39.699Z,99.36
2022-11-27T20:17:08.012Z,98.82
2022-11-27T20:19:36.096Z,99.02
2022-11-27T20:22:03.823Z,99.31
2022-11-27T20:24:31.793Z,99.11
2022-11-27T20:26:59.988Z,99.60
2022-11-27T20:29:28.346Z,99.49
2022-11-27T20:31:55.884Z,99.22
2022-11-27T20:34:24.069Z,99.80
2022-11-27T20:36:51.725Z,99.17
2022-11-27T20:39:21.869Z,98.78
2022-11-27T20:41:52.165Z,98.12
2022-11-27T20:44:22.603Z,97.32
2022-11-27T20:46:51.131Z,97.43
2022-11-27T20:49:20.721Z,97.66
2022-11-27T20:51:50.662Z,98.14
2022-11-27T20:54:23.128Z,97.43
2022-11-27T20:56:51.694Z,98.12
2022-11-27T20:59:20.106Z,97.55
2022-11-27T21:01:51.904Z,98.00
2022-11-27T21:04:26.367Z,97.95
2022-11-27T21:06:54.511Z,98.13
2022-11-27T21:09:22.725Z,97.54
2022-11-27T21:11:50.859Z,97.43
2022-11-27T21:14:19.485Z,97.82
2022-11-27T21:16:49.954Z,97.66
2022-11-27T21:19:26.487Z,98.20
2022-11-27T21:21:57.210Z,98.54
2022-11-27T21:24:28.487Z,99.13
2022-11-27T21:26:56.767Z,98.98
2022-11-27T21:29:27.812Z,99.33
2022-11-27T21:31:57.214Z,99.09
2022-11-27T21:34:29.083Z,99.03
2022-11-27T21:36:57.535Z,99.67
2022-11-27T21:39:36.685Z,99.68
2022-11-27T21:42:14.192Z,99.58
2022-11-27T21:44:51.777Z,99.10
2022-11-27T21:47:24.850Z,99.69
2022-11-27T21:49:52.860Z,98.84
2022-11-27T21:52:20.600Z,99.38
2022-11-27T21:54:50.892Z,99.01
2022-11-27T21:57:20.721Z,98.17
2022-11-27T21:59:48.712Z,97.83
2022-11-27T22:02:16.529Z,98.40
2022-11-27T22:04:44.794Z,98.45
2022-11-27T22:07:12.621Z,97.78
2022-11-27T22:09:40.973Z,97.34
2022-11-27T22:12:08.860Z,97.17
2022-11-27T22:14:36.807Z,98.35
2022-11-27T22:17:05.130Z,96.80
2022-11-27T22:19:36.546Z,98.06
2022-11-27T22:22:08.898Z,98.07
2022-11-27T22:24:58.950Z,97.62
2022-11-27T22:27:40.605Z,97.38
2022-11-27T22:30:09.350Z,97.11
2022-11-27T22:32:37.053Z,95.98
2022-11-27T22:35:05.920Z,96.16
2022-11-27T22:37:35.541Z,96.04
2022-11-27T22:40:05.748Z,96.11
2022-11-27T22:42:34.033Z,96.49
2022-11-27T22:45:02.497Z,97.24
2022-11-27T22:47:29.981Z,97.28
2022-11-27T22:49:59.085Z,97.51
2022-11-27T22:52:28.005Z,97.42
2022-11-27T22:54:56.012Z,98.14
2022-11-27T22:57:23.828Z,97.48
2022-11-27T22:59:51.771Z,97.23
2022-11-27T23:02:19.638Z,97.95
2022-11-27T23:04:47.605Z,97.67
2022-11-27T23:07:15.278Z,97.84
2022-11-27T23:09:43.238Z,98.06
2022-11-27T23:12:10.783Z,97.90
2022-11-27T23:14:39.944Z,98.27
2022-11-27T23:17:07.850Z,97.91
2022-11-27T23:19:35.825Z,97.85
2022-11-27T23:22:03.371Z,96.50
2022-11-27T23:24:31.220Z,96.96
2022-11-27T23:26:58.821Z,96.71
2022-11-27T23:29:26.927Z,96.90
2022-11-27T23:31:54.580Z,97.28
2022-11-27T23:34:22.628Z,97.38
2022-11-27T23:36:50.285Z,97.34
2022-11-27T23:39:18.177Z,97.04
2022-11-27T23:41:46.824Z,98.15
2022-11-27T23:44:15.070Z,97.66
2022-11-27T23:46:42.777Z,97.84
2022-11-27T23:49:11.002Z,97.55
2022-11-27T23:51:38.634Z,97.84
2022-11-27T23:54:10.457Z,97.57
2022-11-27T23:56:39.935Z,97.60
2022-11-27T23:59:08.024Z,97.53
